sensor_id;sensor_type;location;lat;lon;timestamp;P1;durP1;ratioP1;P2;durP2;ratioP2
43487;SDS011;29078;41.932;25.554;2022-12-07T00:00:52;60.72;;;32.10;;
43487;SDS011;29078;41.932;25.554;2022-12-07T00:03:18;67.35;;;34.33;;
43487;SDS011;29078;41.932;25.554;2022-12-07T00:05:43;90.88;;;49.55;;
43487;SDS011;29078;41.932;25.554;2022-12-07T00:08:08;72.55;;;38.83;;
43487;SDS011;29078;41.932;25.554;2022-12-07T00:10:34;70.25;;;33.97;;
43487;SDS011;29078;41.932;25.554;2022-12-07T00:12:59;72.10;;;39.55;;
43487;SDS011;29078;41.932;25.554;2022-12-07T00:15:25;66.97;;;34.85;;
43487;SDS011;29078;41.932;25.554;2022-12-07T00:17:50;65.07;;;34.50;;
43487;SDS011;29078;41.932;25.554;2022-12-07T00:20:16;62.75;;;31.50;;
43487;SDS011;29078;41.932;25.554;2022-12-07T00:22:41;78.47;;;34.42;;
43487;SDS011;29078;41.932;25.554;2022-12-07T00:25:07;74.40;;;36.13;;
43487;SDS011;29078;41.932;25.554;2022-12-07T00:27:32;67.25;;;32.45;;
43487;SDS011;29078;41.932;25.554;2022-12-07T00:29:58;59.78;;;30.70;;
43487;SDS011;29078;41.932;25.554;2022-12-07T00:32:23;66.63;;;31.33;;
43487;SDS011;29078;41.932;25.554;2022-12-07T00:34:48;67.63;;;34.17;;
43487;SDS011;29078;41.932;25.554;2022-12-07T00:37:14;70.05;;;32.65;;
43487;SDS011;29078;41.932;25.554;2022-12-07T00:39:39;63.78;;;33.65;;
43487;SDS011;29078;41.932;25.554;2022-12-07T00:42:05;66.18;;;32.15;;
43487;SDS011;29078;41.932;25.554;2022-12-07T00:44:30;73.15;;;34.65;;
43487;SDS011;29078;41.932;25.554;2022-12-07T00:46:55;60.80;;;32.55;;
43487;SDS011;29078;41.932;25.554;2022-12-07T00:49:21;64.25;;;33.05;;
43487;SDS011;29078;41.932;25.554;2022-12-07T00:51:47;63.58;;;32.00;;
43487;SDS011;29078;41.932;25.554;2022-12-07T00:54:13;64.88;;;33.58;;
43487;SDS011;29078;41.932;25.554;2022-12-07T00:56:39;69.22;;;34.22;;
43487;SDS011;29078;41.932;25.554;2022-12-07T00:59:04;70.85;;;35.70;;
43487;SDS011;29078;41.932;25.554;2022-12-07T01:01:34;72.65;;;35.17;;
43487;SDS011;29078;41.932;25.554;2022-12-07T01:04:01;67.38;;;31.70;;
43487;SDS011;29078;41.932;25.554;2022-12-07T01:06:27;72.20;;;35.42;;
43487;SDS011;29078;41.932;25.554;2022-12-07T01:08:54;70.15;;;31.83;;
43487;SDS011;29078;41.932;25.554;2022-12-07T01:11:21;67.82;;;31.20;;
43487;SDS011;29078;41.932;25.554;2022-12-07T01:13:52;69.00;;;32.70;;
43487;SDS011;29078;41.932;25.554;2022-12-07T01:16:19;73.45;;;32.90;;
43487;SDS011;29078;41.932;25.554;2022-12-07T01:18:46;73.00;;;35.47;;
43487;SDS011;29078;41.932;25.554;2022-12-07T01:21:15;74.53;;;35.15;;
43487;SDS011;29078;41.932;25.554;2022-12-07T01:23:48;73.53;;;34.42;;
43487;SDS011;29078;41.932;25.554;2022-12-07T01:26:16;73.75;;;33.72;;
43487;SDS011;29078;41.932;25.554;2022-12-07T01:28:43;70.57;;;32.83;;
43487;SDS011;29078;41.932;25.554;2022-12-07T01:31:10;79.72;;;37.53;;
43487;SDS011;29078;41.932;25.554;2022-12-07T01:33:40;74.15;;;36.10;;
43487;SDS011;29078;41.932;25.554;2022-12-07T01:36:08;80.38;;;37.22;;
43487;SDS011;29078;41.932;25.554;2022-12-07T01:38:39;71.50;;;34.22;;
43487;SDS011;29078;41.932;25.554;2022-12-07T01:41:05;73.13;;;35.03;;
43487;SDS011;29078;41.932;25.554;2022-12-07T01:43:31;69.55;;;31.38;;
43487;SDS011;29078;41.932;25.554;2022-12-07T01:45:58;73.15;;;33.67;;
43487;SDS011;29078;41.932;25.554;2022-12-07T01:48:46;73.95;;;32.85;;
43487;SDS011;29078;41.932;25.554;2022-12-07T01:51:11;75.95;;;31.83;;
43487;SDS011;29078;41.932;25.554;2022-12-07T01:53:40;74.28;;;32.60;;
43487;SDS011;29078;41.932;25.554;2022-12-07T01:56:11;71.20;;;33.75;;
43487;SDS011;29078;41.932;25.554;2022-12-07T02:01:07;69.47;;;31.17;;
43487;SDS011;29078;41.932;25.554;2022-12-07T02:03:43;69.13;;;31.63;;
43487;SDS011;29078;41.932;25.554;2022-12-07T02:06:10;70.82;;;34.53;;
43487;SDS011;29078;41.932;25.554;2022-12-07T02:08:39;73.10;;;32.60;;
43487;SDS011;29078;41.932;25.554;2022-12-07T02:11:05;77.05;;;32.22;;
43487;SDS011;29078;41.932;25.554;2022-12-07T02:13:33;65.88;;;33.03;;
43487;SDS011;29078;41.932;25.554;2022-12-07T02:16:08;71.97;;;34.42;;
43487;SDS011;29078;41.932;25.554;2022-12-07T02:18:41;70.97;;;33.67;;
43487;SDS011;29078;41.932;25.554;2022-12-07T02:21:34;74.40;;;35.28;;
43487;SDS011;29078;41.932;25.554;2022-12-07T02:26:45;77.70;;;34.08;;
43487;SDS011;29078;41.932;25.554;2022-12-07T02:29:30;70.03;;;31.23;;
43487;SDS011;29078;41.932;25.554;2022-12-07T02:40:53;69.07;;;33.67;;
43487;SDS011;29078;41.932;25.554;2022-12-07T02:45:59;72.63;;;34.40;;
43487;SDS011;29078;41.932;25.554;2022-12-07T02:48:30;75.93;;;34.30;;
43487;SDS011;29078;41.932;25.554;2022-12-07T02:50:58;77.28;;;33.47;;
43487;SDS011;29078;41.932;25.554;2022-12-07T02:53:34;65.28;;;30.38;;
43487;SDS011;29078;41.932;25.554;2022-12-07T03:06:53;76.32;;;31.55;;
43487;SDS011;29078;41.932;25.554;2022-12-07T03:09:36;73.82;;;33.53;;
43487;SDS011;29078;41.932;25.554;2022-12-07T03:12:11;76.80;;;34.15;;
43487;SDS011;29078;41.932;25.554;2022-12-07T03:17:23;72.05;;;32.10;;
43487;SDS011;29078;41.932;25.554;2022-12-07T03:19:53;75.63;;;31.45;;
43487;SDS011;29078;41.932;25.554;2022-12-07T03:22:23;67.45;;;30.17;;
43487;SDS011;29078;41.932;25.554;2022-12-07T03:24:52;72.60;;;32.85;;
43487;SDS011;29078;41.932;25.554;2022-12-07T03:27:32;75.35;;;33.78;;
43487;SDS011;29078;41.932;25.554;2022-12-07T03:30:02;70.03;;;32.47;;
43487;SDS011;29078;41.932;25.554;2022-12-07T03:32:35;72.20;;;31.10;;
43487;SDS011;29078;41.932;25.554;2022-12-07T03:38:06;73.80;;;35.55;;
43487;SDS011;29078;41.932;25.554;2022-12-07T03:40:52;71.95;;;32.88;;
43487;SDS011;29078;41.932;25.554;2022-12-07T03:43:25;79.93;;;32.83;;
43487;SDS011;29078;41.932;25.554;2022-12-07T03:46:00;73.35;;;32.90;;
43487;SDS011;29078;41.932;25.554;2022-12-07T03:48:38;64.50;;;28.55;;
43487;SDS011;29078;41.932;25.554;2022-12-07T03:53:46;64.50;;;28.70;;
43487;SDS011;29078;41.932;25.554;2022-12-07T03:56:18;69.20;;;30.60;;
43487;SDS011;29078;41.932;25.554;2022-12-07T03:58:45;62.17;;;29.25;;
43487;SDS011;29078;41.932;25.554;2022-12-07T04:01:11;65.95;;;30.80;;
43487;SDS011;29078;41.932;25.554;2022-12-07T04:03:37;71.43;;;32.00;;
43487;SDS011;29078;41.932;25.554;2022-12-07T04:06:02;69.55;;;31.05;;
43487;SDS011;29078;41.932;25.554;2022-12-07T04:08:28;66.60;;;32.83;;
43487;SDS011;29078;41.932;25.554;2022-12-07T04:10:53;67.00;;;29.35;;
43487;SDS011;29078;41.932;25.554;2022-12-07T04:13:19;65.40;;;29.45;;
43487;SDS011;29078;41.932;25.554;2022-12-07T04:15:44;67.57;;;30.10;;
43487;SDS011;29078;41.932;25.554;2022-12-07T04:18:09;67.03;;;28.00;;
43487;SDS011;29078;41.932;25.554;2022-12-07T04:20:35;57.30;;;28.95;;
43487;SDS011;29078;41.932;25.554;2022-12-07T04:23:00;71.88;;;31.42;;
43487;SDS011;29078;41.932;25.554;2022-12-07T04:25:26;72.65;;;31.23;;
43487;SDS011;29078;41.932;25.554;2022-12-07T04:27:51;76.53;;;34.97;;
43487;SDS011;29078;41.932;25.554;2022-12-07T04:30:17;84.72;;;39.65;;
43487;SDS011;29078;41.932;25.554;2022-12-07T04:32:44;70.72;;;32.50;;
43487;SDS011;29078;41.932;25.554;2022-12-07T04:35:09;74.40;;;34.78;;
43487;SDS011;29078;41.932;25.554;2022-12-07T04:37:34;68.38;;;34.72;;
43487;SDS011;29078;41.932;25.554;2022-12-07T04:40:00;79.35;;;37.97;;
43487;SDS011;29078;41.932;25.554;2022-12-07T04:42:25;80.85;;;38.22;;
43487;SDS011;29078;41.932;25.554;2022-12-07T04:44:51;82.93;;;37.45;;
43487;SDS011;29078;41.932;25.554;2022-12-07T04:47:16;71.47;;;33.15;;
43487;SDS011;29078;41.932;25.554;2022-12-07T04:49:42;72.40;;;32.20;;
43487;SDS011;29078;41.932;25.554;2022-12-07T04:52:08;73.30;;;35.20;;
43487;SDS011;29078;41.932;25.554;2022-12-07T04:54:34;72.20;;;35.22;;
43487;SDS011;29078;41.932;25.554;2022-12-07T04:56:59;84.47;;;36.65;;
43487;SDS011;29078;41.932;25.554;2022-12-07T04:59:25;80.45;;;37.00;;
43487;SDS011;29078;41.932;25.554;2022-12-07T05:01:50;73.30;;;36.45;;
43487;SDS011;29078;41.932;25.554;2022-12-07T05:04:15;73.35;;;35.05;;
43487;SDS011;29078;41.932;25.554;2022-12-07T05:06:42;80.57;;;36.33;;
43487;SDS011;29078;41.932;25.554;2022-12-07T05:09:08;84.25;;;38.38;;
43487;SDS011;29078;41.932;25.554;2022-12-07T05:11:33;76.50;;;36.20;;
43487;SDS011;29078;41.932;25.554;2022-12-07T05:14:18;77.13;;;32.25;;
43487;SDS011;29078;41.932;25.554;2022-12-07T05:16:46;74.68;;;34.42;;
43487;SDS011;29078;41.932;25.554;2022-12-07T05:19:13;73.00;;;33.92;;
43487;SDS011;29078;41.932;25.554;2022-12-07T05:21:39;79.95;;;38.40;;
43487;SDS011;29078;41.932;25.554;2022-12-07T05:24:05;86.97;;;38.63;;
43487;SDS011;29078;41.932;25.554;2022-12-07T05:26:32;79.68;;;39.45;;
43487;SDS011;29078;41.932;25.554;2022-12-07T05:28:59;72.35;;;34.72;;
43487;SDS011;29078;41.932;25.554;2022-12-07T05:31:25;75.07;;;35.25;;
43487;SDS011;29078;41.932;25.554;2022-12-07T05:33:51;81.03;;;36.45;;
43487;SDS011;29078;41.932;25.554;2022-12-07T05:36:17;87.47;;;39.13;;
43487;SDS011;29078;41.932;25.554;2022-12-07T05:38:43;76.93;;;35.85;;
43487;SDS011;29078;41.932;25.554;2022-12-07T05:41:08;77.57;;;39.58;;
43487;SDS011;29078;41.932;25.554;2022-12-07T05:43:57;89.75;;;45.10;;
43487;SDS011;29078;41.932;25.554;2022-12-07T05:46:22;93.72;;;45.63;;
43487;SDS011;29078;41.932;25.554;2022-12-07T05:48:48;83.85;;;41.75;;
43487;SDS011;29078;41.932;25.554;2022-12-07T05:51:13;79.03;;;40.53;;
43487;SDS011;29078;41.932;25.554;2022-12-07T05:53:38;80.55;;;39.65;;
43487;SDS011;29078;41.932;25.554;2022-12-07T05:56:04;73.85;;;38.13;;
43487;SDS011;29078;41.932;25.554;2022-12-07T05:58:30;82.05;;;40.35;;
43487;SDS011;29078;41.932;25.554;2022-12-07T06:01:14;79.78;;;40.22;;
43487;SDS011;29078;41.932;25.554;2022-12-07T06:03:39;69.18;;;34.63;;
43487;SDS011;29078;41.932;25.554;2022-12-07T06:06:04;68.90;;;35.38;;
43487;SDS011;29078;41.932;25.554;2022-12-07T06:08:30;69.80;;;36.72;;
43487;SDS011;29078;41.932;25.554;2022-12-07T06:10:55;61.47;;;32.50;;
43487;SDS011;29078;41.932;25.554;2022-12-07T06:13:39;60.85;;;32.28;;
43487;SDS011;29078;41.932;25.554;2022-12-07T06:16:04;68.75;;;35.13;;
43487;SDS011;29078;41.932;25.554;2022-12-07T06:18:30;63.40;;;34.42;;
43487;SDS011;29078;41.932;25.554;2022-12-07T06:20:56;60.83;;;34.42;;
43487;SDS011;29078;41.932;25.554;2022-12-07T06:23:21;78.15;;;40.55;;
43487;SDS011;29078;41.932;25.554;2022-12-07T06:25:47;83.78;;;44.88;;
43487;SDS011;29078;41.932;25.554;2022-12-07T06:28:12;85.60;;;45.63;;
43487;SDS011;29078;41.932;25.554;2022-12-07T06:30:37;93.00;;;49.95;;
43487;SDS011;29078;41.932;25.554;2022-12-07T06:33:03;87.30;;;47.33;;
43487;SDS011;29078;41.932;25.554;2022-12-07T06:35:28;93.85;;;50.20;;
43487;SDS011;29078;41.932;25.554;2022-12-07T06:37:53;81.95;;;47.03;;
43487;SDS011;29078;41.932;25.554;2022-12-07T06:40:19;83.45;;;47.22;;
43487;SDS011;29078;41.932;25.554;2022-12-07T06:42:44;88.55;;;46.35;;
43487;SDS011;29078;41.932;25.554;2022-12-07T06:45:10;78.10;;;44.95;;
43487;SDS011;29078;41.932;25.554;2022-12-07T06:47:35;70.75;;;42.35;;
43487;SDS011;29078;41.932;25.554;2022-12-07T06:50:00;83.55;;;42.20;;
43487;SDS011;29078;41.932;25.554;2022-12-07T06:52:26;71.28;;;41.22;;
43487;SDS011;29078;41.932;25.554;2022-12-07T06:54:51;73.07;;;38.30;;
43487;SDS011;29078;41.932;25.554;2022-12-07T06:57:17;72.68;;;41.35;;
43487;SDS011;29078;41.932;25.554;2022-12-07T06:59:42;75.13;;;38.85;;
43487;SDS011;29078;41.932;25.554;2022-12-07T07:02:08;72.43;;;39.33;;
43487;SDS011;29078;41.932;25.554;2022-12-07T07:04:34;78.00;;;39.85;;
43487;SDS011;29078;41.932;25.554;2022-12-07T07:06:59;74.15;;;39.40;;
43487;SDS011;29078;41.932;25.554;2022-12-07T07:09:25;76.25;;;41.15;;
43487;SDS011;29078;41.932;25.554;2022-12-07T07:11:51;77.63;;;40.58;;
43487;SDS011;29078;41.932;25.554;2022-12-07T07:14:16;70.40;;;38.25;;
43487;SDS011;29078;41.932;25.554;2022-12-07T07:16:44;80.82;;;45.25;;
43487;SDS011;29078;41.932;25.554;2022-12-07T07:19:09;86.68;;;48.60;;
43487;SDS011;29078;41.932;25.554;2022-12-07T07:21:36;91.80;;;52.53;;
43487;SDS011;29078;41.932;25.554;2022-12-07T07:24:01;87.78;;;50.00;;
43487;SDS011;29078;41.932;25.554;2022-12-07T07:26:27;90.22;;;50.70;;
43487;SDS011;29078;41.932;25.554;2022-12-07T07:28:52;87.65;;;50.55;;
43487;SDS011;29078;41.932;25.554;2022-12-07T07:31:18;86.45;;;48.53;;
43487;SDS011;29078;41.932;25.554;2022-12-07T07:33:45;92.20;;;49.10;;
43487;SDS011;29078;41.932;25.554;2022-12-07T07:36:11;88.63;;;53.60;;
43487;SDS011;29078;41.932;25.554;2022-12-07T07:38:37;93.80;;;50.53;;
43487;SDS011;29078;41.932;25.554;2022-12-07T07:41:02;95.72;;;51.28;;
43487;SDS011;29078;41.932;25.554;2022-12-07T07:43:28;80.38;;;45.80;;
43487;SDS011;29078;41.932;25.554;2022-12-07T07:45:53;89.45;;;49.28;;
43487;SDS011;29078;41.932;25.554;2022-12-07T07:48:19;77.82;;;45.67;;
43487;SDS011;29078;41.932;25.554;2022-12-07T07:50:44;83.68;;;48.42;;
43487;SDS011;29078;41.932;25.554;2022-12-07T07:53:10;86.28;;;47.28;;
43487;SDS011;29078;41.932;25.554;2022-12-07T07:55:35;87.25;;;49.53;;
43487;SDS011;29078;41.932;25.554;2022-12-07T07:58:00;84.43;;;46.90;;
43487;SDS011;29078;41.932;25.554;2022-12-07T08:00:26;87.35;;;48.25;;
43487;SDS011;29078;41.932;25.554;2022-12-07T08:02:51;83.68;;;48.85;;
43487;SDS011;29078;41.932;25.554;2022-12-07T08:05:17;90.93;;;52.58;;
43487;SDS011;29078;41.932;25.554;2022-12-07T08:07:42;79.47;;;44.50;;
43487;SDS011;29078;41.932;25.554;2022-12-07T08:10:09;85.25;;;47.05;;
43487;SDS011;29078;41.932;25.554;2022-12-07T08:12:40;85.57;;;48.67;;
43487;SDS011;29078;41.932;25.554;2022-12-07T08:15:29;82.03;;;48.17;;
43487;SDS011;29078;41.932;25.554;2022-12-07T08:17:55;86.10;;;49.53;;
43487;SDS011;29078;41.932;25.554;2022-12-07T08:20:21;85.00;;;48.97;;
43487;SDS011;29078;41.932;25.554;2022-12-07T08:22:47;84.05;;;46.55;;
43487;SDS011;29078;41.932;25.554;2022-12-07T08:25:12;75.95;;;44.17;;
43487;SDS011;29078;41.932;25.554;2022-12-07T08:27:37;83.40;;;45.55;;
43487;SDS011;29078;41.932;25.554;2022-12-07T08:30:03;75.50;;;42.45;;
43487;SDS011;29078;41.932;25.554;2022-12-07T08:32:29;83.35;;;43.20;;
43487;SDS011;29078;41.932;25.554;2022-12-07T08:34:54;69.72;;;39.95;;
43487;SDS011;29078;41.932;25.554;2022-12-07T08:37:20;75.53;;;41.78;;
43487;SDS011;29078;41.932;25.554;2022-12-07T08:39:45;69.75;;;39.75;;
43487;SDS011;29078;41.932;25.554;2022-12-07T08:42:11;71.47;;;40.00;;
43487;SDS011;29078;41.932;25.554;2022-12-07T08:44:36;57.28;;;37.38;;
43487;SDS011;29078;41.932;25.554;2022-12-07T08:47:02;79.13;;;44.80;;
43487;SDS011;29078;41.932;25.554;2022-12-07T08:49:33;81.65;;;46.65;;
43487;SDS011;29078;41.932;25.554;2022-12-07T08:52:03;81.07;;;47.93;;
43487;SDS011;29078;41.932;25.554;2022-12-07T08:54:29;90.43;;;54.40;;
43487;SDS011;29078;41.932;25.554;2022-12-07T08:56:55;85.03;;;51.00;;
43487;SDS011;29078;41.932;25.554;2022-12-07T08:59:21;78.72;;;45.60;;
43487;SDS011;29078;41.932;25.554;2022-12-07T09:01:48;70.55;;;44.47;;
43487;SDS011;29078;41.932;25.554;2022-12-07T09:04:13;81.00;;;45.28;;
43487;SDS011;29078;41.932;25.554;2022-12-07T09:06:40;79.07;;;47.97;;
43487;SDS011;29078;41.932;25.554;2022-12-07T09:09:06;81.32;;;48.03;;
43487;SDS011;29078;41.932;25.554;2022-12-07T09:11:33;78.85;;;44.53;;
43487;SDS011;29078;41.932;25.554;2022-12-07T09:13:59;70.53;;;37.45;;
43487;SDS011;29078;41.932;25.554;2022-12-07T09:16:24;65.75;;;34.53;;
43487;SDS011;29078;41.932;25.554;2022-12-07T09:18:49;68.38;;;37.65;;
43487;SDS011;29078;41.932;25.554;2022-12-07T09:21:15;63.90;;;33.47;;
43487;SDS011;29078;41.932;25.554;2022-12-07T09:23:43;60.58;;;32.60;;
43487;SDS011;29078;41.932;25.554;2022-12-07T09:26:09;57.75;;;34.90;;
43487;SDS011;29078;41.932;25.554;2022-12-07T09:28:34;57.95;;;33.47;;
43487;SDS011;29078;41.932;25.554;2022-12-07T09:31:00;60.72;;;34.70;;
43487;SDS011;29078;41.932;25.554;2022-12-07T09:33:25;60.78;;;34.42;;
43487;SDS011;29078;41.932;25.554;2022-12-07T09:35:51;52.13;;;31.55;;
43487;SDS011;29078;41.932;25.554;2022-12-07T09:38:17;56.10;;;32.55;;
43487;SDS011;29078;41.932;25.554;2022-12-07T09:40:44;60.53;;;32.55;;
43487;SDS011;29078;41.932;25.554;2022-12-07T09:43:28;57.65;;;33.35;;
43487;SDS011;29078;41.932;25.554;2022-12-07T09:45:54;55.13;;;31.23;;
43487;SDS011;29078;41.932;25.554;2022-12-07T09:48:21;52.58;;;31.00;;
43487;SDS011;29078;41.932;25.554;2022-12-07T09:50:50;53.60;;;30.02;;
43487;SDS011;29078;41.932;25.554;2022-12-07T09:53:26;55.22;;;31.08;;
43487;SDS011;29078;41.932;25.554;2022-12-07T09:56:01;48.97;;;29.70;;
43487;SDS011;29078;41.932;25.554;2022-12-07T09:58:27;54.25;;;29.98;;
43487;SDS011;29078;41.932;25.554;2022-12-07T10:03:32;48.05;;;27.08;;
43487;SDS011;29078;41.932;25.554;2022-12-07T10:05:58;45.42;;;26.75;;
43487;SDS011;29078;41.932;25.554;2022-12-07T10:08:24;44.40;;;27.15;;
43487;SDS011;29078;41.932;25.554;2022-12-07T10:10:51;53.33;;;28.38;;
43487;SDS011;29078;41.932;25.554;2022-12-07T10:13:19;51.10;;;30.48;;
43487;SDS011;29078;41.932;25.554;2022-12-07T10:20:45;48.70;;;29.08;;
43487;SDS011;29078;41.932;25.554;2022-12-07T10:23:17;49.92;;;29.45;;
43487;SDS011;29078;41.932;25.554;2022-12-07T10:25:43;50.20;;;28.23;;
43487;SDS011;29078;41.932;25.554;2022-12-07T10:28:16;45.92;;;28.60;;
43487;SDS011;29078;41.932;25.554;2022-12-07T10:30:50;51.42;;;29.08;;
43487;SDS011;29078;41.932;25.554;2022-12-07T10:36:21;41.28;;;27.98;;
43487;SDS011;29078;41.932;25.554;2022-12-07T10:39:02;57.45;;;36.30;;
43487;SDS011;29078;41.932;25.554;2022-12-07T10:41:40;41.90;;;27.48;;
43487;SDS011;29078;41.932;25.554;2022-12-07T10:44:25;45.70;;;26.80;;
43487;SDS011;29078;41.932;25.554;2022-12-07T10:52:58;40.20;;;24.55;;
43487;SDS011;29078;41.932;25.554;2022-12-07T11:10:18;42.03;;;25.27;;
43487;SDS011;29078;41.932;25.554;2022-12-07T11:13:03;41.97;;;27.23;;
43487;SDS011;29078;41.932;25.554;2022-12-07T11:18:32;44.15;;;26.77;;
43487;SDS011;29078;41.932;25.554;2022-12-07T11:24:20;46.42;;;30.00;;
43487;SDS011;29078;41.932;25.554;2022-12-07T11:30:10;44.67;;;29.42;;
43487;SDS011;29078;41.932;25.554;2022-12-07T11:38:15;46.90;;;28.35;;
43487;SDS011;29078;41.932;25.554;2022-12-07T11:40:46;46.50;;;27.75;;
43487;SDS011;29078;41.932;25.554;2022-12-07T11:46:03;40.28;;;24.45;;
43487;SDS011;29078;41.932;25.554;2022-12-07T11:48:40;40.53;;;24.05;;
43487;SDS011;29078;41.932;25.554;2022-12-07T11:51:11;41.15;;;26.30;;
43487;SDS011;29078;41.932;25.554;2022-12-07T11:53:45;37.63;;;23.95;;
43487;SDS011;29078;41.932;25.554;2022-12-07T11:56:19;39.42;;;24.42;;
43487;SDS011;29078;41.932;25.554;2022-12-07T12:06:26;43.05;;;24.35;;
43487;SDS011;29078;41.932;25.554;2022-12-07T12:22:04;37.80;;;25.33;;
43487;SDS011;29078;41.932;25.554;2022-12-07T12:24:52;44.88;;;28.00;;
43487;SDS011;29078;41.932;25.554;2022-12-07T12:27:22;44.03;;;25.48;;
43487;SDS011;29078;41.932;25.554;2022-12-07T12:29:55;42.25;;;27.85;;
43487;SDS011;29078;41.932;25.554;2022-12-07T12:32:29;42.08;;;27.00;;
43487;SDS011;29078;41.932;25.554;2022-12-07T12:35:00;44.60;;;28.48;;
43487;SDS011;29078;41.932;25.554;2022-12-07T12:37:45;41.95;;;26.52;;
43487;SDS011;29078;41.932;25.554;2022-12-07T12:42:50;40.60;;;25.52;;
43487;SDS011;29078;41.932;25.554;2022-12-07T12:50:34;44.42;;;27.90;;
43487;SDS011;29078;41.932;25.554;2022-12-07T12:58:35;46.35;;;27.33;;
43487;SDS011;29078;41.932;25.554;2022-12-07T13:04:12;47.78;;;31.13;;
43487;SDS011;29078;41.932;25.554;2022-12-07T13:06:42;43.05;;;27.20;;
43487;SDS011;29078;41.932;25.554;2022-12-07T13:09:17;37.70;;;25.55;;
43487;SDS011;29078;41.932;25.554;2022-12-07T13:12:00;42.92;;;26.17;;
43487;SDS011;29078;41.932;25.554;2022-12-07T13:17:09;41.70;;;26.70;;
43487;SDS011;29078;41.932;25.554;2022-12-07T13:25:07;40.35;;;26.60;;
43487;SDS011;29078;41.932;25.554;2022-12-07T13:27:37;41.80;;;26.10;;
43487;SDS011;29078;41.932;25.554;2022-12-07T13:30:16;45.85;;;29.27;;
43487;SDS011;29078;41.932;25.554;2022-12-07T13:32:50;47.90;;;29.63;;
43487;SDS011;29078;41.932;25.554;2022-12-07T13:35:34;48.67;;;29.42;;
43487;SDS011;29078;41.932;25.554;2022-12-07T13:38:01;44.30;;;28.63;;
43487;SDS011;29078;41.932;25.554;2022-12-07T13:40:29;44.95;;;26.45;;
43487;SDS011;29078;41.932;25.554;2022-12-07T13:42:59;46.88;;;28.55;;
43487;SDS011;29078;41.932;25.554;2022-12-07T13:48:14;49.15;;;31.02;;
43487;SDS011;29078;41.932;25.554;2022-12-07T13:50:48;49.53;;;30.25;;
43487;SDS011;29078;41.932;25.554;2022-12-07T13:53:18;42.78;;;29.30;;
43487;SDS011;29078;41.932;25.554;2022-12-07T13:55:44;46.47;;;28.05;;
43487;SDS011;29078;41.932;25.554;2022-12-07T13:58:11;41.70;;;26.35;;
43487;SDS011;29078;41.932;25.554;2022-12-07T14:00:37;45.85;;;29.45;;
43487;SDS011;29078;41.932;25.554;2022-12-07T14:03:27;44.95;;;28.00;;
43487;SDS011;29078;41.932;25.554;2022-12-07T14:08:41;44.85;;;29.50;;
43487;SDS011;29078;41.932;25.554;2022-12-07T14:11:08;44.78;;;30.60;;
43487;SDS011;29078;41.932;25.554;2022-12-07T14:13:40;44.72;;;29.38;;
43487;SDS011;29078;41.932;25.554;2022-12-07T14:16:25;43.30;;;28.98;;
43487;SDS011;29078;41.932;25.554;2022-12-07T14:18:57;47.33;;;27.10;;
43487;SDS011;29078;41.932;25.554;2022-12-07T14:21:25;51.30;;;32.58;;
43487;SDS011;29078;41.932;25.554;2022-12-07T14:26:48;50.05;;;29.75;;
43487;SDS011;29078;41.932;25.554;2022-12-07T14:31:53;43.95;;;28.48;;
43487;SDS011;29078;41.932;25.554;2022-12-07T14:34:20;45.28;;;30.58;;
43487;SDS011;29078;41.932;25.554;2022-12-07T14:36:46;51.25;;;30.63;;
43487;SDS011;29078;41.932;25.554;2022-12-07T14:39:12;47.03;;;31.52;;
43487;SDS011;29078;41.932;25.554;2022-12-07T14:41:37;43.45;;;27.45;;
43487;SDS011;29078;41.932;25.554;2022-12-07T14:44:21;47.80;;;29.40;;
43487;SDS011;29078;41.932;25.554;2022-12-07T14:46:49;46.10;;;30.88;;
43487;SDS011;29078;41.932;25.554;2022-12-07T14:49:15;47.13;;;31.60;;
43487;SDS011;29078;41.932;25.554;2022-12-07T14:51:43;47.33;;;30.02;;
43487;SDS011;29078;41.932;25.554;2022-12-07T14:54:17;51.88;;;33.15;;
43487;SDS011;29078;41.932;25.554;2022-12-07T14:56:44;45.10;;;30.98;;
43487;SDS011;29078;41.932;25.554;2022-12-07T14:59:13;46.75;;;31.05;;
43487;SDS011;29078;41.932;25.554;2022-12-07T15:01:39;45.25;;;29.20;;
43487;SDS011;29078;41.932;25.554;2022-12-07T15:04:04;43.90;;;29.23;;
43487;SDS011;29078;41.932;25.554;2022-12-07T15:06:30;41.80;;;27.13;;
43487;SDS011;29078;41.932;25.554;2022-12-07T15:08:55;38.47;;;26.13;;
43487;SDS011;29078;41.932;25.554;2022-12-07T15:11:21;45.67;;;28.50;;
43487;SDS011;29078;41.932;25.554;2022-12-07T15:13:46;36.63;;;25.55;;
43487;SDS011;29078;41.932;25.554;2022-12-07T15:16:30;41.53;;;25.80;;
43487;SDS011;29078;41.932;25.554;2022-12-07T15:18:56;42.55;;;27.63;;
43487;SDS011;29078;41.932;25.554;2022-12-07T15:21:22;43.00;;;27.80;;
43487;SDS011;29078;41.932;25.554;2022-12-07T15:23:47;39.50;;;26.45;;
43487;SDS011;29078;41.932;25.554;2022-12-07T15:26:13;45.15;;;26.58;;
43487;SDS011;29078;41.932;25.554;2022-12-07T15:28:39;39.88;;;26.80;;
43487;SDS011;29078;41.932;25.554;2022-12-07T15:31:10;43.30;;;28.52;;
43487;SDS011;29078;41.932;25.554;2022-12-07T15:33:36;43.67;;;27.42;;
43487;SDS011;29078;41.932;25.554;2022-12-07T15:36:02;46.75;;;29.52;;
43487;SDS011;29078;41.932;25.554;2022-12-07T15:38:27;45.42;;;28.23;;
43487;SDS011;29078;41.932;25.554;2022-12-07T15:40:55;45.65;;;29.38;;
43487;SDS011;29078;41.932;25.554;2022-12-07T15:43:20;60.83;;;36.17;;
43487;SDS011;29078;41.932;25.554;2022-12-07T15:46:04;54.22;;;34.15;;
43487;SDS011;29078;41.932;25.554;2022-12-07T15:48:29;53.28;;;33.78;;
43487;SDS011;29078;41.932;25.554;2022-12-07T15:51:02;56.08;;;34.83;;
43487;SDS011;29078;41.932;25.554;2022-12-07T15:53:29;52.35;;;33.38;;
43487;SDS011;29078;41.932;25.554;2022-12-07T15:55:54;49.67;;;30.25;;
43487;SDS011;29078;41.932;25.554;2022-12-07T15:58:19;47.30;;;29.77;;
43487;SDS011;29078;41.932;25.554;2022-12-07T16:00:45;53.45;;;32.40;;
43487;SDS011;29078;41.932;25.554;2022-12-07T16:03:11;54.65;;;33.20;;
43487;SDS011;29078;41.932;25.554;2022-12-07T16:05:36;48.70;;;29.33;;
43487;SDS011;29078;41.932;25.554;2022-12-07T16:08:02;53.65;;;32.22;;
43487;SDS011;29078;41.932;25.554;2022-12-07T16:10:27;57.78;;;34.72;;
43487;SDS011;29078;41.932;25.554;2022-12-07T16:12:53;56.47;;;33.85;;
43487;SDS011;29078;41.932;25.554;2022-12-07T16:15:18;59.00;;;33.40;;
43487;SDS011;29078;41.932;25.554;2022-12-07T16:17:44;59.47;;;34.03;;
43487;SDS011;29078;41.932;25.554;2022-12-07T16:20:09;58.42;;;35.75;;
43487;SDS011;29078;41.932;25.554;2022-12-07T16:22:35;60.55;;;35.53;;
43487;SDS011;29078;41.932;25.554;2022-12-07T16:25:00;55.15;;;35.00;;
43487;SDS011;29078;41.932;25.554;2022-12-07T16:27:26;58.70;;;34.45;;
43487;SDS011;29078;41.932;25.554;2022-12-07T16:29:51;58.42;;;33.92;;
43487;SDS011;29078;41.932;25.554;2022-12-07T16:32:17;57.10;;;33.63;;
43487;SDS011;29078;41.932;25.554;2022-12-07T16:34:42;57.92;;;33.58;;
43487;SDS011;29078;41.932;25.554;2022-12-07T16:37:07;63.97;;;36.53;;